sensor_id;sensor_type;location;lat;lon;timestamp;pressure;altitude;pressure_sealevel;temperature
55077;BMP280;40971;44.702;11.030;2023-02-04T00:07:31;101983.56;;;2.97
55077;BMP280;40971;44.702;11.030;2023-02-04T00:17:32;101986.06;;;2.91
55077;BMP280;40971;44.702;11.030;2023-02-04T00:27:32;101954.53;;;2.70
55077;BMP280;40971;44.702;11.030;2023-02-04T00:37:32;101934.16;;;2.68
55077;BMP280;40971;44.702;11.030;2023-02-04T00:47:33;101945.97;;;2.62
55077;BMP280;40971;44.702;11.030;2023-02-04T00:57:33;101916.44;;;3.01
55077;BMP280;40971;44.702;11.030;2023-02-04T01:07:34;101920.72;;;3.10
55077;BMP280;40971;44.702;11.030;2023-02-04T01:17:34;101926.69;;;3.25
55077;BMP280;40971;44.702;11.030;2023-02-04T01:27:35;101899.50;;;3.25
55077;BMP280;40971;44.702;11.030;2023-02-04T01:37:35;101897.00;;;3.58
55077;BMP280;40971;44.702;11.030;2023-02-04T01:47:36;101884.16;;;3.09
55077;BMP280;40971;44.702;11.030;2023-02-04T01:57:37;101892.53;;;2.71
55077;BMP280;40971;44.702;11.030;2023-02-04T02:07:38;101898.44;;;2.61
55077;BMP280;40971;44.702;11.030;2023-02-04T02:17:39;101882.31;;;2.66
55077;BMP280;40971;44.702;11.030;2023-02-04T02:27:40;101876.13;;;2.15
55077;BMP280;40971;44.702;11.030;2023-02-04T02:37:41;101882.09;;;2.22
55077;BMP280;40971;44.702;11.030;2023-02-04T02:47:41;101872.69;;;2.10
55077;BMP280;40971;44.702;11.030;2023-02-04T02:57:44;101863.53;;;2.39
55077;BMP280;40971;44.702;11.030;2023-02-04T03:07:45;101877.19;;;2.62
55077;BMP280;40971;44.702;11.030;2023-02-04T03:17:46;101886.50;;;2.57
55077;BMP280;40971;44.702;11.030;2023-02-04T03:27:47;101868.44;;;2.06
55077;BMP280;40971;44.702;11.030;2023-02-04T03:37:47;101875.25;;;2.10
55077;BMP280;40971;44.702;11.030;2023-02-04T03:47:48;101872.50;;;1.81
55077;BMP280;40971;44.702;11.030;2023-02-04T03:57:48;101858.38;;;2.35
55077;BMP280;40971;44.702;11.030;2023-02-04T04:07:49;101852.47;;;2.36
55077;BMP280;40971;44.702;11.030;2023-02-04T04:17:49;101841.19;;;1.93
55077;BMP280;40971;44.702;11.030;2023-02-04T04:27:50;101822.03;;;2.70
55077;BMP280;40971;44.702;11.030;2023-02-04T04:37:50;101839.72;;;2.37
55077;BMP280;40971;44.702;11.030;2023-02-04T04:47:50;101833.78;;;2.40
55077;BMP280;40971;44.702;11.030;2023-02-04T04:57:51;101838.72;;;2.05
55077;BMP280;40971;44.702;11.030;2023-02-04T05:07:51;101825.22;;;2.17
55077;BMP280;40971;44.702;11.030;2023-02-04T05:17:52;101819.91;;;1.80
55077;BMP280;40971;44.702;11.030;2023-02-04T05:27:53;101812.59;;;2.41
55077;BMP280;40971;44.702;11.030;2023-02-04T05:37:54;101830.50;;;2.60
55077;BMP280;40971;44.702;11.030;2023-02-04T05:47:54;101845.78;;;2.58
55077;BMP280;40971;44.702;11.030;2023-02-04T05:57:55;101850.72;;;2.27
55077;BMP280;40971;44.702;11.030;2023-02-04T06:07:55;101860.03;;;2.22
55077;BMP280;40971;44.702;11.030;2023-02-04T06:17:56;101870.84;;;1.86
55077;BMP280;40971;44.702;11.030;2023-02-04T06:27:57;101880.09;;;1.78
55077;BMP280;40971;44.702;11.030;2023-02-04T06:37:58;101868.31;;;0.95
55077;BMP280;40971;44.702;11.030;2023-02-04T06:47:58;101891.63;;;1.38
55077;BMP280;40971;44.702;11.030;2023-02-04T06:57:58;101875.63;;;1.47
55077;BMP280;40971;44.702;11.030;2023-02-04T07:07:59;101887.81;;;1.88
55077;BMP280;40971;44.702;11.030;2023-02-04T07:17:59;101887.41;;;2.66
55077;BMP280;40971;44.702;11.030;2023-02-04T07:28:00;101893.44;;;2.88
55077;BMP280;40971;44.702;11.030;2023-02-04T07:38:03;101937.69;;;3.05
55077;BMP280;40971;44.702;11.030;2023-02-04T07:48:04;101963.34;;;3.79
55077;BMP280;40971;44.702;11.030;2023-02-04T07:58:04;101987.19;;;4.17
55077;BMP280;40971;44.702;11.030;2023-02-04T08:08:05;101981.97;;;4.82
55077;BMP280;40971;44.702;11.030;2023-02-04T08:18:05;101951.44;;;5.97
55077;BMP280;40971;44.702;11.030;2023-02-04T08:28:06;101958.19;;;6.91
55077;BMP280;40971;44.702;11.030;2023-02-04T08:38:06;101967.56;;;7.55
55077;BMP280;40971;44.702;11.030;2023-02-04T08:48:06;101975.16;;;8.20
55077;BMP280;40971;44.702;11.030;2023-02-04T08:58:08;101979.31;;;9.15
55077;BMP280;40971;44.702;11.030;2023-02-04T09:08:09;101959.06;;;8.99
55077;BMP280;40971;44.702;11.030;2023-02-04T09:18:09;101975.50;;;9.34
55077;BMP280;40971;44.702;11.030;2023-02-04T09:28:17;101979.47;;;9.09
55077;BMP280;40971;44.702;11.030;2023-02-04T09:38:18;101982.22;;;9.40
55077;BMP280;40971;44.702;11.030;2023-02-04T09:48:20;101984.88;;;9.37
55077;BMP280;40971;44.702;11.030;2023-02-04T09:58:22;102005.16;;;9.11
55077;BMP280;40971;44.702;11.030;2023-02-04T10:08:28;102005.66;;;9.28
55077;BMP280;40971;44.702;11.030;2023-02-04T10:18:32;102005.00;;;9.57
55077;BMP280;40971;44.702;11.030;2023-02-04T10:28:34;101980.09;;;9.94
55077;BMP280;40971;44.702;11.030;2023-02-04T10:38:34;101976.03;;;10.54
55077;BMP280;40971;44.702;11.030;2023-02-04T10:48:40;101964.00;;;10.84
55077;BMP280;40971;44.702;11.030;2023-02-04T10:58:41;101968.69;;;11.30
55077;BMP280;40971;44.702;11.030;2023-02-04T11:08:42;101947.44;;;12.02
55077;BMP280;40971;44.702;11.030;2023-02-04T11:19:04;101942.41;;;12.48
55077;BMP280;40971;44.702;11.030;2023-02-04T11:39:15;101903.88;;;13.32
55077;BMP280;40971;44.702;11.030;2023-02-04T11:49:18;101917.38;;;13.61
55077;BMP280;40971;44.702;11.030;2023-02-04T11:59:19;101918.56;;;13.74
55077;BMP280;40971;44.702;11.030;2023-02-04T12:09:25;101904.47;;;14.01
55077;BMP280;40971;44.702;11.030;2023-02-04T12:19:26;101896.22;;;14.70
55077;BMP280;40971;44.702;11.030;2023-02-04T12:29:26;101880.94;;;15.01
55077;BMP280;40971;44.702;11.030;2023-02-04T12:39:27;101880.44;;;15.30
55077;BMP280;40971;44.702;11.030;2023-02-04T12:49:27;101895.78;;;15.88
55077;BMP280;40971;44.702;11.030;2023-02-04T12:59:28;101878.91;;;16.12
55077;BMP280;40971;44.702;11.030;2023-02-04T13:09:30;101862.25;;;16.65
55077;BMP280;40971;44.702;11.030;2023-02-04T13:19:31;101861.91;;;17.02
55077;BMP280;40971;44.702;11.030;2023-02-04T13:29:31;101875.19;;;17.59
55077;BMP280;40971;44.702;11.030;2023-02-04T13:39:32;101878.34;;;17.65
55077;BMP280;40971;44.702;11.030;2023-02-04T13:49:32;101876.88;;;17.60
55077;BMP280;40971;44.702;11.030;2023-02-04T13:59:33;101884.25;;;17.83
55077;BMP280;40971;44.702;11.030;2023-02-04T14:09:33;101901.44;;;17.71
55077;BMP280;40971;44.702;11.030;2023-02-04T14:19:34;101909.72;;;17.64
55077;BMP280;40971;44.702;11.030;2023-02-04T14:29:34;101915.63;;;17.36
55077;BMP280;40971;44.702;11.030;2023-02-04T14:39:35;101926.22;;;17.49
55077;BMP280;40971;44.702;11.030;2023-02-04T14:49:35;101932.03;;;17.54
55077;BMP280;40971;44.702;11.030;2023-02-04T14:59:37;101972.06;;;16.74
55077;BMP280;40971;44.702;11.030;2023-02-04T15:09:38;101975.09;;;16.65
55077;BMP280;40971;44.702;11.030;2023-02-04T15:19:38;101993.22;;;15.64
55077;BMP280;40971;44.702;11.030;2023-02-04T15:29:39;102044.47;;;13.38
55077;BMP280;40971;44.702;11.030;2023-02-04T15:39:39;102080.59;;;11.62
55077;BMP280;40971;44.702;11.030;2023-02-04T15:49:40;102140.78;;;9.52
55077;BMP280;40971;44.702;11.030;2023-02-04T15:59:40;102162.56;;;8.90
55077;BMP280;40971;44.702;11.030;2023-02-04T16:09:40;102168.28;;;8.54
55077;BMP280;40971;44.702;11.030;2023-02-04T16:19:42;102206.06;;;8.52
55077;BMP280;40971;44.702;11.030;2023-02-04T16:29:43;102237.47;;;8.14
55077;BMP280;40971;44.702;11.030;2023-02-04T16:39:44;102254.91;;;7.86
55077;BMP280;40971;44.702;11.030;2023-02-04T16:49:44;102273.13;;;7.61
55077;BMP280;40971;44.702;11.030;2023-02-04T16:59:45;102302.41;;;7.44
55077;BMP280;40971;44.702;11.030;2023-02-04T17:09:45;102315.41;;;7.21
55077;BMP280;40971;44.702;11.030;2023-02-04T17:19:46;102331.94;;;6.86
55077;BMP280;40971;44.702;11.030;2023-02-04T17:29:46;102359.44;;;6.59
55077;BMP280;40971;44.702;11.030;2023-02-04T17:39:46;102384.22;;;6.54
55077;BMP280;40971;44.702;11.030;2023-02-04T17:49:47;102391.94;;;6.49
55077;BMP280;40971;44.702;11.030;2023-02-04T17:59:48;102421.91;;;6.34
55077;BMP280;40971;44.702;11.030;2023-02-04T18:09:48;102445.00;;;6.18
55077;BMP280;40971;44.702;11.030;2023-02-04T18:19:49;102470.63;;;5.92
55077;BMP280;40971;44.702;11.030;2023-02-04T18:29:52;102491.97;;;5.88
55077;BMP280;40971;44.702;11.030;2023-02-04T18:50:33;102526.91;;;5.58
55077;BMP280;40971;44.702;11.030;2023-02-04T19:00:34;102543.97;;;5.61
55077;BMP280;40971;44.702;11.030;2023-02-04T19:10:36;102566.13;;;5.51
55077;BMP280;40971;44.702;11.030;2023-02-04T19:20:37;102580.59;;;5.37
55077;BMP280;40971;44.702;11.030;2023-02-04T19:30:45;102593.25;;;5.10
55077;BMP280;40971;44.702;11.030;2023-02-04T19:40:50;102613.75;;;5.16
55077;BMP280;40971;44.702;11.030;2023-02-04T19:50:52;102625.16;;;5.82
55077;BMP280;40971;44.702;11.030;2023-02-04T20:00:57;102634.59;;;5.95
55077;BMP280;40971;44.702;11.030;2023-02-04T20:10:57;102651.69;;;5.99
55077;BMP280;40971;44.702;11.030;2023-02-04T20:20:58;102673.97;;;6.24
55077;BMP280;40971;44.702;11.030;2023-02-04T20:30:59;102697.00;;;6.06
55077;BMP280;40971;44.702;11.030;2023-02-04T20:40:59;102719.09;;;5.85
55077;BMP280;40971;44.702;11.030;2023-02-04T20:51:00;102738.81;;;6.01
55077;BMP280;40971;44.702;11.030;2023-02-04T21:01:39;102739.72;;;6.22
55077;BMP280;40971;44.702;11.030;2023-02-04T21:11:38;102763.69;;;6.34
55077;BMP280;40971;44.702;11.030;2023-02-04T21:21:39;102768.88;;;6.49
55077;BMP280;40971;44.702;11.030;2023-02-04T21:31:39;102769.66;;;6.29
55077;BMP280;40971;44.702;11.030;2023-02-04T21:41:40;102777.34;;;6.20
55077;BMP280;40971;44.702;11.030;2023-02-04T21:51:40;102772.16;;;6.08
55077;BMP280;40971;44.702;11.030;2023-02-04T22:01:41;102788.16;;;5.71
55077;BMP280;40971;44.702;11.030;2023-02-04T22:11:41;102794.81;;;5.44
55077;BMP280;40971;44.702;11.030;2023-02-04T22:21:42;102807.44;;;5.26
55077;BMP280;40971;44.702;11.030;2023-02-04T22:31:42;102838.16;;;5.26
55077;BMP280;40971;44.702;11.030;2023-02-04T22:41:44;102847.56;;;5.27
55077;BMP280;40971;44.702;11.030;2023-02-04T22:51:44;102851.66;;;5.10
55077;BMP280;40971;44.702;11.030;2023-02-04T23:01:45;102857.28;;;4.77
55077;BMP280;40971;44.702;11.030;2023-02-04T23:11:45;102865.47;;;4.47
55077;BMP280;40971;44.702;11.030;2023-02-04T23:21:46;102860.41;;;4.52
55077;BMP280;40971;44.702;11.030;2023-02-04T23:31:46;102878.34;;;4.53
55077;BMP280;40971;44.702;11.030;2023-02-04T23:41:47;102886.75;;;4.46
55077;BMP280;40971;44.702;11.030;2023-02-04T23:51:48;102882.00;;;4.10
